sensor_id;sensor_type;location;lat;lon;timestamp;P1;durP1;ratioP1;P2;durP2;ratioP2
67685;SDS011;54469;52.090;4.312;2023-01-28T00:00:03;12.5;;;7.2;;
67685;SDS011;54469;52.090;4.312;2023-01-28T00:05:03;9.9;;;6.6;;
67685;SDS011;54469;52.090;4.312;2023-01-28T00:10:02;9.9;;;6.6;;
67685;SDS011;54469;52.090;4.312;2023-01-28T00:15:03;9.9;;;6.6;;
67685;SDS011;54469;52.090;4.312;2023-01-28T00:20:02;9.9;;;6.6;;
67685;SDS011;54469;52.090;4.312;2023-01-28T00:25:03;9.9;;;6.6;;
67685;SDS011;54469;52.090;4.312;2023-01-28T00:30:03;9.9;;;6.6;;
67685;SDS011;54469;52.090;4.312;2023-01-28T00:35:03;9.9;;;6.6;;
67685;SDS011;54469;52.090;4.312;2023-01-28T00:40:03;9.9;;;6.6;;
67685;SDS011;54469;52.090;4.312;2023-01-28T00:45:03;9.300000000000002;;;5.6;;
67685;SDS011;54469;52.090;4.312;2023-01-28T00:50:02;9.300000000000002;;;5.6;;
67685;SDS011;54469;52.090;4.312;2023-01-28T00:55:02;9.300000000000002;;;5.6;;
67685;SDS011;54469;52.090;4.312;2023-01-28T01:00:04;9.300000000000002;;;5.6;;
67685;SDS011;54469;52.090;4.312;2023-01-28T01:05:03;9.300000000000002;;;5.6;;
67685;SDS011;54469;52.090;4.312;2023-01-28T01:10:04;9.300000000000002;;;5.6;;
67685;SDS011;54469;52.090;4.312;2023-01-28T01:15:02;7.8;;;4.5;;
67685;SDS011;54469;52.090;4.312;2023-01-28T01:20:02;7.8;;;4.5;;
67685;SDS011;54469;52.090;4.312;2023-01-28T01:25:02;7.8;;;4.5;;
67685;SDS011;54469;52.090;4.312;2023-01-28T01:30:02;4.6;;;3.8;;
67685;SDS011;54469;52.090;4.312;2023-01-28T01:35:03;8.1;;;4;;
67685;SDS011;54469;52.090;4.312;2023-01-28T01:40:03;8.1;;;4;;
67685;SDS011;54469;52.090;4.312;2023-01-28T01:45:03;7.3;;;5.1;;
67685;SDS011;54469;52.090;4.312;2023-01-28T01:50:03;7.3;;;5.1;;
67685;SDS011;54469;52.090;4.312;2023-01-28T01:55:04;7.3;;;5.1;;
67685;SDS011;54469;52.090;4.312;2023-01-28T02:00:03;7.3;;;5.1;;
67685;SDS011;54469;52.090;4.312;2023-01-28T02:05:02;7.3;;;5.1;;
67685;SDS011;54469;52.090;4.312;2023-01-28T02:10:02;7.3;;;5.1;;
67685;SDS011;54469;52.090;4.312;2023-01-28T02:15:04;7.3;;;5.1;;
67685;SDS011;54469;52.090;4.312;2023-01-28T02:20:03;10.5;;;5.6;;
67685;SDS011;54469;52.090;4.312;2023-01-28T02:25:08;10.5;;;5.6;;
67685;SDS011;54469;52.090;4.312;2023-01-28T02:30:05;7.7;;;5.1;;
67685;SDS011;54469;52.090;4.312;2023-01-28T02:35:05;7.7;;;5.1;;
67685;SDS011;54469;52.090;4.312;2023-01-28T02:40:04;7.7;;;5.1;;
67685;SDS011;54469;52.090;4.312;2023-01-28T02:45:02;7.7;;;5.1;;
67685;SDS011;54469;52.090;4.312;2023-01-28T02:50:04;7.7;;;5.1;;
67685;SDS011;54469;52.090;4.312;2023-01-28T02:55:05;7.7;;;5.1;;
67685;SDS011;54469;52.090;4.312;2023-01-28T03:00:05;6.2;;;3.8;;
67685;SDS011;54469;52.090;4.312;2023-01-28T03:05:04;6.2;;;3.8;;
67685;SDS011;54469;52.090;4.312;2023-01-28T03:10:04;6.2;;;3.8;;
67685;SDS011;54469;52.090;4.312;2023-01-28T03:15:03;3.5;;;3;;
67685;SDS011;54469;52.090;4.312;2023-01-28T03:20:02;6.1;;;3.7;;
67685;SDS011;54469;52.090;4.312;2023-01-28T03:25:02;6.1;;;3.7;;
67685;SDS011;54469;52.090;4.312;2023-01-28T03:30:04;6.1;;;3.7;;
67685;SDS011;54469;52.090;4.312;2023-01-28T03:35:02;6.1;;;3.7;;
67685;SDS011;54469;52.090;4.312;2023-01-28T03:40:03;6.1;;;3.7;;
67685;SDS011;54469;52.090;4.312;2023-01-28T03:45:03;6.1;;;3.7;;
67685;SDS011;54469;52.090;4.312;2023-01-28T03:50:03;6.1;;;3.7;;
67685;SDS011;54469;52.090;4.312;2023-01-28T03:55:02;6.1;;;3.7;;
67685;SDS011;54469;52.090;4.312;2023-01-28T04:00:02;6.1;;;3.7;;
67685;SDS011;54469;52.090;4.312;2023-01-28T04:05:03;6.1;;;3.7;;
67685;SDS011;54469;52.090;4.312;2023-01-28T04:10:03;6.1;;;3.7;;
67685;SDS011;54469;52.090;4.312;2023-01-28T04:15:04;6.1;;;3.7;;
67685;SDS011;54469;52.090;4.312;2023-01-28T04:20:03;6.1;;;3.7;;
67685;SDS011;54469;52.090;4.312;2023-01-28T04:25:03;6.1;;;3.7;;
67685;SDS011;54469;52.090;4.312;2023-01-28T04:30:02;2.8;;;2.2;;
67685;SDS011;54469;52.090;4.312;2023-01-28T04:35:02;7.7;;;4.1;;
67685;SDS011;54469;52.090;4.312;2023-01-28T04:40:03;7.7;;;4.1;;
67685;SDS011;54469;52.090;4.312;2023-01-28T04:45:03;7.7;;;4.1;;
67685;SDS011;54469;52.090;4.312;2023-01-28T04:50:02;7.7;;;4.1;;
67685;SDS011;54469;52.090;4.312;2023-01-28T04:55:02;7.7;;;4.1;;
67685;SDS011;54469;52.090;4.312;2023-01-28T05:00:03;7.7;;;4.1;;
67685;SDS011;54469;52.090;4.312;2023-01-28T05:05:03;7.7;;;4.1;;
67685;SDS011;54469;52.090;4.312;2023-01-28T05:10:03;7.7;;;4.1;;
67685;SDS011;54469;52.090;4.312;2023-01-28T05:15:03;5.2;;;3.3;;
67685;SDS011;54469;52.090;4.312;2023-01-28T05:20:03;5.2;;;3.3;;
67685;SDS011;54469;52.090;4.312;2023-01-28T05:25:02;8;;;3.9;;
67685;SDS011;54469;52.090;4.312;2023-01-28T05:30:02;5.3;;;3.5;;
67685;SDS011;54469;52.090;4.312;2023-01-28T05:35:03;5.3;;;3.5;;
67685;SDS011;54469;52.090;4.312;2023-01-28T05:40:03;5.3;;;3.5;;
67685;SDS011;54469;52.090;4.312;2023-01-28T05:45:03;5.3;;;3.5;;
67685;SDS011;54469;52.090;4.312;2023-01-28T05:50:02;5.3;;;3.5;;
67685;SDS011;54469;52.090;4.312;2023-01-28T05:55:03;5.3;;;3.5;;
67685;SDS011;54469;52.090;4.312;2023-01-28T06:00:02;5.3;;;3.5;;
67685;SDS011;54469;52.090;4.312;2023-01-28T06:05:02;5.3;;;3.5;;
67685;SDS011;54469;52.090;4.312;2023-01-28T06:10:03;5.3;;;3.5;;
67685;SDS011;54469;52.090;4.312;2023-01-28T06:15:03;5.3;;;3.5;;
67685;SDS011;54469;52.090;4.312;2023-01-28T06:20:02;5.3;;;3.5;;
67685;SDS011;54469;52.090;4.312;2023-01-28T06:25:02;5.3;;;3.5;;
67685;SDS011;54469;52.090;4.312;2023-01-28T06:30:03;8.199999999999998;;;3.6;;
67685;SDS011;54469;52.090;4.312;2023-01-28T06:35:03;8.199999999999998;;;3.6;;
67685;SDS011;54469;52.090;4.312;2023-01-28T06:40:03;5.5;;;3.8;;
67685;SDS011;54469;52.090;4.312;2023-01-28T06:45:02;5.5;;;3.8;;
67685;SDS011;54469;52.090;4.312;2023-01-28T06:50:03;5.5;;;3.8;;
67685;SDS011;54469;52.090;4.312;2023-01-28T06:55:03;5.5;;;3.8;;
67685;SDS011;54469;52.090;4.312;2023-01-28T07:00:03;5.5;;;3.8;;
67685;SDS011;54469;52.090;4.312;2023-01-28T07:05:03;5.5;;;3.8;;
67685;SDS011;54469;52.090;4.312;2023-01-28T07:10:03;5.5;;;3.8;;
67685;SDS011;54469;52.090;4.312;2023-01-28T07:15:02;5.5;;;3.8;;
67685;SDS011;54469;52.090;4.312;2023-01-28T07:20:03;5.5;;;3.8;;
67685;SDS011;54469;52.090;4.312;2023-01-28T07:25:03;5.5;;;3.8;;
67685;SDS011;54469;52.090;4.312;2023-01-28T07:30:02;7.9;;;4.3;;
67685;SDS011;54469;52.090;4.312;2023-01-28T07:35:02;5.4;;;4.1;;
67685;SDS011;54469;52.090;4.312;2023-01-28T07:40:03;5.4;;;4.1;;
67685;SDS011;54469;52.090;4.312;2023-01-28T07:45:03;7.6;;;4.9;;
67685;SDS011;54469;52.090;4.312;2023-01-28T07:50:03;7.6;;;4.9;;
67685;SDS011;54469;52.090;4.312;2023-01-28T07:55:02;7.6;;;4.9;;
67685;SDS011;54469;52.090;4.312;2023-01-28T08:00:03;7.6;;;4.9;;
67685;SDS011;54469;52.090;4.312;2023-01-28T08:05:03;7.6;;;4.9;;
67685;SDS011;54469;52.090;4.312;2023-01-28T08:10:03;7.6;;;4.9;;
67685;SDS011;54469;52.090;4.312;2023-01-28T08:15:03;7.6;;;4.9;;
67685;SDS011;54469;52.090;4.312;2023-01-28T08:20:03;7.6;;;4.9;;
67685;SDS011;54469;52.090;4.312;2023-01-28T08:25:02;7.6;;;4.9;;
67685;SDS011;54469;52.090;4.312;2023-01-28T08:30:02;7.6;;;4.9;;
67685;SDS011;54469;52.090;4.312;2023-01-28T08:35:03;5.2;;;3.6;;
67685;SDS011;54469;52.090;4.312;2023-01-28T08:40:02;6.4;;;4.6;;
67685;SDS011;54469;52.090;4.312;2023-01-28T08:45:03;6.4;;;4.6;;
67685;SDS011;54469;52.090;4.312;2023-01-28T08:50:03;8.699999999999998;;;4.9;;
67685;SDS011;54469;52.090;4.312;2023-01-28T08:55:03;8.699999999999998;;;4.9;;
67685;SDS011;54469;52.090;4.312;2023-01-28T09:00:02;5.7;;;4.3;;
67685;SDS011;54469;52.090;4.312;2023-01-28T09:05:02;10;;;4;;
67685;SDS011;54469;52.090;4.312;2023-01-28T09:10:03;4.9;;;4;;
67685;SDS011;54469;52.090;4.312;2023-01-28T09:15:03;4.9;;;4;;
67685;SDS011;54469;52.090;4.312;2023-01-28T09:20:02;4.9;;;4;;
67685;SDS011;54469;52.090;4.312;2023-01-28T09:25:02;7.3;;;4.6;;
67685;SDS011;54469;52.090;4.312;2023-01-28T09:30:03;7.3;;;4.6;;
67685;SDS011;54469;52.090;4.312;2023-01-28T09:35:03;7.3;;;4.6;;
67685;SDS011;54469;52.090;4.312;2023-01-28T09:40:03;7.3;;;4.6;;
67685;SDS011;54469;52.090;4.312;2023-01-28T09:45:05;5.8;;;3.5;;
67685;SDS011;54469;52.090;4.312;2023-01-28T09:50:04;5.8;;;3.5;;
67685;SDS011;54469;52.090;4.312;2023-01-28T09:55:04;5.8;;;3.5;;
67685;SDS011;54469;52.090;4.312;2023-01-28T10:00:08;5.8;;;3.5;;
67685;SDS011;54469;52.090;4.312;2023-01-28T10:05:05;5.8;;;3.5;;
67685;SDS011;54469;52.090;4.312;2023-01-28T10:10:04;5.8;;;3.5;;
67685;SDS011;54469;52.090;4.312;2023-01-28T10:15:10;7.9;;;2.9;;
67685;SDS011;54469;52.090;4.312;2023-01-28T10:20:04;5.2;;;3.2;;
67685;SDS011;54469;52.090;4.312;2023-01-28T10:25:03;5.2;;;3.2;;
67685;SDS011;54469;52.090;4.312;2023-01-28T10:30:08;7.5;;;3.1;;
67685;SDS011;54469;52.090;4.312;2023-01-28T10:35:03;5.2;;;3;;
67685;SDS011;54469;52.090;4.312;2023-01-28T10:40:03;5.2;;;3;;
67685;SDS011;54469;52.090;4.312;2023-01-28T10:45:04;5.2;;;3;;
67685;SDS011;54469;52.090;4.312;2023-01-28T10:50:03;5.2;;;3;;
67685;SDS011;54469;52.090;4.312;2023-01-28T10:55:04;5.2;;;3;;
67685;SDS011;54469;52.090;4.312;2023-01-28T11:00:11;5.2;;;3;;
67685;SDS011;54469;52.090;4.312;2023-01-28T11:05:04;2.8;;;2.6;;
67685;SDS011;54469;52.090;4.312;2023-01-28T11:10:20;2.8;;;2.6;;
67685;SDS011;54469;52.090;4.312;2023-01-28T11:15:03;8.5;;;3.3;;
67685;SDS011;54469;52.090;4.312;2023-01-28T11:20:08;5;;;3.1;;
67685;SDS011;54469;52.090;4.312;2023-01-28T11:25:03;5;;;3.1;;
67685;SDS011;54469;52.090;4.312;2023-01-28T11:30:03;5;;;3.1;;
67685;SDS011;54469;52.090;4.312;2023-01-28T11:35:02;5;;;3.1;;
67685;SDS011;54469;52.090;4.312;2023-01-28T11:40:09;5;;;3.1;;
67685;SDS011;54469;52.090;4.312;2023-01-28T11:45:04;5.8;;;4.1;;
67685;SDS011;54469;52.090;4.312;2023-01-28T11:50:12;5.8;;;4.1;;
67685;SDS011;54469;52.090;4.312;2023-01-28T11:55:07;5.8;;;4.1;;
67685;SDS011;54469;52.090;4.312;2023-01-28T12:00:10;5.8;;;4.1;;
67685;SDS011;54469;52.090;4.312;2023-01-28T12:05:07;5.8;;;4.1;;
67685;SDS011;54469;52.090;4.312;2023-01-28T12:10:03;5.8;;;4.1;;
67685;SDS011;54469;52.090;4.312;2023-01-28T12:15:08;5.8;;;4.1;;
67685;SDS011;54469;52.090;4.312;2023-01-28T12:20:05;5.8;;;4.1;;
67685;SDS011;54469;52.090;4.312;2023-01-28T12:25:07;3.9;;;2.9;;
67685;SDS011;54469;52.090;4.312;2023-01-28T12:30:05;3.9;;;2.9;;
67685;SDS011;54469;52.090;4.312;2023-01-28T12:36:04;6.5;;;3.6;;
67685;SDS011;54469;52.090;4.312;2023-01-28T12:40:05;8.9;;;4.1;;
67685;SDS011;54469;52.090;4.312;2023-01-28T12:45:04;6.9;;;2.9;;
67685;SDS011;54469;52.090;4.312;2023-01-28T12:50:03;6.9;;;2.9;;
67685;SDS011;54469;52.090;4.312;2023-01-28T12:55:03;3.2;;;1.9;;
67685;SDS011;54469;52.090;4.312;2023-01-28T13:00:05;3.2;;;1.9;;
67685;SDS011;54469;52.090;4.312;2023-01-28T13:05:03;6.7;;;2.2;;
67685;SDS011;54469;52.090;4.312;2023-01-28T13:10:04;3.6;;;2.5;;
67685;SDS011;54469;52.090;4.312;2023-01-28T13:15:02;3.6;;;2.5;;
67685;SDS011;54469;52.090;4.312;2023-01-28T13:20:12;3.6;;;2.5;;
67685;SDS011;54469;52.090;4.312;2023-01-28T13:25:19;3.6;;;2.5;;
67685;SDS011;54469;52.090;4.312;2023-01-28T13:30:04;3.6;;;2.5;;
67685;SDS011;54469;52.090;4.312;2023-01-28T13:35:04;3.6;;;2.5;;
67685;SDS011;54469;52.090;4.312;2023-01-28T13:40:06;6;;;2;;
67685;SDS011;54469;52.090;4.312;2023-01-28T13:45:19;3.3;;;1.9;;
67685;SDS011;54469;52.090;4.312;2023-01-28T13:50:03;5.5;;;2.2;;
67685;SDS011;54469;52.090;4.312;2023-01-28T13:55:03;5.5;;;2.2;;
67685;SDS011;54469;52.090;4.312;2023-01-28T14:00:04;9.1;;;2.5;;
67685;SDS011;54469;52.090;4.312;2023-01-28T14:05:07;6.8;;;2.2;;
67685;SDS011;54469;52.090;4.312;2023-01-28T14:10:07;6.8;;;2.2;;
67685;SDS011;54469;52.090;4.312;2023-01-28T14:15:06;4.5;;;2.1;;
67685;SDS011;54469;52.090;4.312;2023-01-28T14:20:03;4.5;;;2.1;;
67685;SDS011;54469;52.090;4.312;2023-01-28T14:25:03;4.5;;;2.1;;
67685;SDS011;54469;52.090;4.312;2023-01-28T14:30:05;4.5;;;2.1;;
67685;SDS011;54469;52.090;4.312;2023-01-28T14:35:04;4.5;;;2.1;;
67685;SDS011;54469;52.090;4.312;2023-01-28T14:40:03;4.5;;;2.1;;
67685;SDS011;54469;52.090;4.312;2023-01-28T14:45:07;4.5;;;2.1;;
67685;SDS011;54469;52.090;4.312;2023-01-28T14:50:07;4.5;;;2.1;;
67685;SDS011;54469;52.090;4.312;2023-01-28T14:55:04;6.7;;;1.5;;
67685;SDS011;54469;52.090;4.312;2023-01-28T15:00:13;6.7;;;1.5;;
67685;SDS011;54469;52.090;4.312;2023-01-28T15:05:06;6.7;;;1.5;;
67685;SDS011;54469;52.090;4.312;2023-01-28T15:10:03;6.7;;;1.5;;
67685;SDS011;54469;52.090;4.312;2023-01-28T15:15:10;6.7;;;1.5;;
67685;SDS011;54469;52.090;4.312;2023-01-28T15:20:06;9.699999999999998;;;2.2;;
67685;SDS011;54469;52.090;4.312;2023-01-28T15:25:02;4.3;;;1.7;;
67685;SDS011;54469;52.090;4.312;2023-01-28T15:30:03;4.3;;;1.7;;
67685;SDS011;54469;52.090;4.312;2023-01-28T15:35:06;4.3;;;1.7;;
67685;SDS011;54469;52.090;4.312;2023-01-28T15:40:03;4.3;;;1.7;;
67685;SDS011;54469;52.090;4.312;2023-01-28T15:45:02;4.3;;;1.7;;
67685;SDS011;54469;52.090;4.312;2023-01-28T15:50:03;4.3;;;1.7;;
67685;SDS011;54469;52.090;4.312;2023-01-28T15:55:03;4.3;;;1.7;;
67685;SDS011;54469;52.090;4.312;2023-01-28T16:00:08;4.3;;;1.7;;
67685;SDS011;54469;52.090;4.312;2023-01-28T16:05:03;4.3;;;1.7;;
67685;SDS011;54469;52.090;4.312;2023-01-28T16:10:02;4.3;;;1.7;;
67685;SDS011;54469;52.090;4.312;2023-01-28T16:15:02;4.3;;;1.7;;
67685;SDS011;54469;52.090;4.312;2023-01-28T16:20:03;4.3;;;1.7;;
67685;SDS011;54469;52.090;4.312;2023-01-28T16:25:02;4.3;;;1.7;;
67685;SDS011;54469;52.090;4.312;2023-01-28T16:30:03;7.2;;;2.3;;
67685;SDS011;54469;52.090;4.312;2023-01-28T16:35:03;9.9;;;3.3;;
67685;SDS011;54469;52.090;4.312;2023-01-28T16:40:03;5.1;;;2;;
67685;SDS011;54469;52.090;4.312;2023-01-28T16:45:03;5.1;;;2;;
67685;SDS011;54469;52.090;4.312;2023-01-28T16:50:03;5.1;;;2;;
67685;SDS011;54469;52.090;4.312;2023-01-28T16:55:03;17.8;;;5.4;;
67685;SDS011;54469;52.090;4.312;2023-01-28T17:00:03;4.5;;;2;;
67685;SDS011;54469;52.090;4.312;2023-01-28T17:05:03;4.5;;;2;;
67685;SDS011;54469;52.090;4.312;2023-01-28T17:10:02;4.5;;;2;;
67685;SDS011;54469;52.090;4.312;2023-01-28T17:15:02;22.3;;;7.8;;
67685;SDS011;54469;52.090;4.312;2023-01-28T17:20:03;5.3;;;2.4;;
67685;SDS011;54469;52.090;4.312;2023-01-28T17:25:03;7.6;;;2.5;;
67685;SDS011;54469;52.090;4.312;2023-01-28T17:30:03;7.6;;;2.5;;
67685;SDS011;54469;52.090;4.312;2023-01-28T17:35:03;10.9;;;2.5;;
67685;SDS011;54469;52.090;4.312;2023-01-28T17:40:03;5.6;;;2.3;;
67685;SDS011;54469;52.090;4.312;2023-01-28T17:45:03;5.6;;;2.3;;
67685;SDS011;54469;52.090;4.312;2023-01-28T17:50:02;5.6;;;2.3;;
67685;SDS011;54469;52.090;4.312;2023-01-28T17:55:03;8.1;;;2.2;;
67685;SDS011;54469;52.090;4.312;2023-01-28T18:00:03;8.1;;;2.2;;
67685;SDS011;54469;52.090;4.312;2023-01-28T18:05:02;6.1;;;3.3;;
67685;SDS011;54469;52.090;4.312;2023-01-28T18:10:02;18.3;;;6.3;;
67685;SDS011;54469;52.090;4.312;2023-01-28T18:15:03;8.699999999999998;;;3.9;;
67685;SDS011;54469;52.090;4.312;2023-01-28T18:20:03;13.9;;;4;;
67685;SDS011;54469;52.090;4.312;2023-01-28T18:25:03;13.9;;;4;;
67685;SDS011;54469;52.090;4.312;2023-01-28T18:30:02;14.2;;;5.4;;
67685;SDS011;54469;52.090;4.312;2023-01-28T18:35:03;12.1;;;4.8;;
67685;SDS011;54469;52.090;4.312;2023-01-28T18:40:03;18.600000000000005;;;7.9;;
67685;SDS011;54469;52.090;4.312;2023-01-28T18:45:03;9.6;;;5.2;;
67685;SDS011;54469;52.090;4.312;2023-01-28T18:50:03;12.4;;;5.2;;
67685;SDS011;54469;52.090;4.312;2023-01-28T18:55:03;16.3;;;7.5;;
67685;SDS011;54469;52.090;4.312;2023-01-28T19:00:03;21.4;;;9.1;;
67685;SDS011;54469;52.090;4.312;2023-01-28T19:05:03;18.600000000000005;;;7.2;;
67685;SDS011;54469;52.090;4.312;2023-01-28T19:10:03;16.1;;;6.4;;
67685;SDS011;54469;52.090;4.312;2023-01-28T19:15:03;10.3;;;4.5;;
67685;SDS011;54469;52.090;4.312;2023-01-28T19:20:03;10.3;;;4.5;;
67685;SDS011;54469;52.090;4.312;2023-01-28T19:25:02;14.3;;;5.9;;
67685;SDS011;54469;52.090;4.312;2023-01-28T19:30:03;14.3;;;5.9;;
67685;SDS011;54469;52.090;4.312;2023-01-28T19:35:03;14.3;;;5.9;;
67685;SDS011;54469;52.090;4.312;2023-01-28T19:40:03;10.199999999999998;;;4.8;;
67685;SDS011;54469;52.090;4.312;2023-01-28T19:45:03;7.6;;;3.9;;
67685;SDS011;54469;52.090;4.312;2023-01-28T19:50:03;12.8;;;5.7;;
67685;SDS011;54469;52.090;4.312;2023-01-28T19:55:03;9.699999999999998;;;4.6;;
67685;SDS011;54469;52.090;4.312;2023-01-28T20:00:03;12.2;;;4.8;;
67685;SDS011;54469;52.090;4.312;2023-01-28T20:05:02;25.4;;;10.4;;
67685;SDS011;54469;52.090;4.312;2023-01-28T20:10:02;11;;;3.9;;
67685;SDS011;54469;52.090;4.312;2023-01-28T20:15:03;10.9;;;5.1;;
67685;SDS011;54469;52.090;4.312;2023-01-28T20:20:03;6.2;;;3.6;;
67685;SDS011;54469;52.090;4.312;2023-01-28T20:25:02;9.6;;;5.4;;
67685;SDS011;54469;52.090;4.312;2023-01-28T20:30:02;12.4;;;5.5;;
67685;SDS011;54469;52.090;4.312;2023-01-28T20:35:03;12.8;;;6.6;;
67685;SDS011;54469;52.090;4.312;2023-01-28T20:40:03;21.8;;;10.5;;
67685;SDS011;54469;52.090;4.312;2023-01-28T20:45:03;9.6;;;4.9;;
67685;SDS011;54469;52.090;4.312;2023-01-28T20:50:02;9.6;;;4.9;;
67685;SDS011;54469;52.090;4.312;2023-01-28T20:55:02;9.6;;;4.9;;
67685;SDS011;54469;52.090;4.312;2023-01-28T21:00:02;9.6;;;4.9;;
67685;SDS011;54469;52.090;4.312;2023-01-28T21:05:02;7.2;;;3.4;;
67685;SDS011;54469;52.090;4.312;2023-01-28T21:10:02;7.2;;;3.4;;
67685;SDS011;54469;52.090;4.312;2023-01-28T21:15:03;7.2;;;3.4;;
67685;SDS011;54469;52.090;4.312;2023-01-28T21:20:03;7.2;;;3.4;;
67685;SDS011;54469;52.090;4.312;2023-01-28T21:25:03;4.2;;;2.5;;
67685;SDS011;54469;52.090;4.312;2023-01-28T21:30:03;7.9;;;2.9;;
67685;SDS011;54469;52.090;4.312;2023-01-28T21:35:03;7.9;;;2.9;;
67685;SDS011;54469;52.090;4.312;2023-01-28T21:40:03;7.9;;;2.9;;
67685;SDS011;54469;52.090;4.312;2023-01-28T21:45:02;7.9;;;2.9;;
67685;SDS011;54469;52.090;4.312;2023-01-28T21:50:02;7.9;;;2.9;;
67685;SDS011;54469;52.090;4.312;2023-01-28T21:55:03;3.2;;;1.3;;
67685;SDS011;54469;52.090;4.312;2023-01-28T22:00:03;3.8;;;2.4;;
67685;SDS011;54469;52.090;4.312;2023-01-28T22:05:03;7.2;;;2.1;;
67685;SDS011;54469;52.090;4.312;2023-01-28T22:10:03;3.9;;;2.3;;
67685;SDS011;54469;52.090;4.312;2023-01-28T22:15:02;8.4;;;2.8;;
67685;SDS011;54469;52.090;4.312;2023-01-28T22:20:02;8.4;;;2.8;;
67685;SDS011;54469;52.090;4.312;2023-01-28T22:25:03;3.5;;;2;;
67685;SDS011;54469;52.090;4.312;2023-01-28T22:30:02;6;;;2.9;;
67685;SDS011;54469;52.090;4.312;2023-01-28T22:35:02;6;;;2.9;;
67685;SDS011;54469;52.090;4.312;2023-01-28T22:40:03;6;;;2.9;;
67685;SDS011;54469;52.090;4.312;2023-01-28T22:45:03;10.199999999999998;;;3.8;;
67685;SDS011;54469;52.090;4.312;2023-01-28T22:50:03;10.199999999999998;;;3.8;;
67685;SDS011;54469;52.090;4.312;2023-01-28T22:55:03;7.7;;;3.6;;
67685;SDS011;54469;52.090;4.312;2023-01-28T23:00:04;13.3;;;4.9;;
67685;SDS011;54469;52.090;4.312;2023-01-28T23:05:02;11.3;;;4.8;;
67685;SDS011;54469;52.090;4.312;2023-01-28T23:10:03;11.3;;;4.8;;
67685;SDS011;54469;52.090;4.312;2023-01-28T23:15:03;8;;;4.5;;
67685;SDS011;54469;52.090;4.312;2023-01-28T23:20:03;8;;;4.5;;
67685;SDS011;54469;52.090;4.312;2023-01-28T23:25:02;8;;;4.5;;
67685;SDS011;54469;52.090;4.312;2023-01-28T23:30:02;8;;;4.5;;
67685;SDS011;54469;52.090;4.312;2023-01-28T23:35:02;8;;;4.5;;
67685;SDS011;54469;52.090;4.312;2023-01-28T23:40:03;10.4;;;5;;
67685;SDS011;54469;52.090;4.312;2023-01-28T23:45:03;10.4;;;5;;
67685;SDS011;54469;52.090;4.312;2023-01-28T23:50:02;10.4;;;5;;
67685;SDS011;54469;52.090;4.312;2023-01-28T23:55:03;8.6;;;3.5;;
